createdAt,value
2022-08-30T00:02:10.931Z,17.58
2022-08-30T00:15:12.892Z,17.62
2022-08-30T00:20:18.583Z,17.60
2022-08-30T00:25:20.995Z,17.60
2022-08-30T00:30:23.365Z,17.61
2022-08-30T00:35:26.014Z,17.62
2022-08-30T00:40:28.782Z,17.65
2022-08-30T00:45:33.420Z,17.72
2022-08-30T00:50:41.740Z,17.76
2022-08-30T00:55:44.679Z,17.72
2022-08-30T01:00:53.111Z,17.73
2022-08-30T01:05:56.407Z,17.73
2022-08-30T01:10:59.531Z,17.70
2022-08-30T01:16:02.491Z,17.66
2022-08-30T01:21:10.864Z,17.66
2022-08-30T01:26:14.469Z,17.65
2022-08-30T01:31:18.909Z,17.65
2022-08-30T01:36:21.483Z,17.63
2022-08-30T01:41:23.775Z,17.61
2022-08-30T01:46:27.767Z,17.62
2022-08-30T01:51:30.398Z,17.62
2022-08-30T01:56:32.758Z,17.62
2022-08-30T02:01:36.966Z,17.60
2022-08-30T02:06:39.580Z,17.59
2022-08-30T02:11:42.293Z,17.58
2022-08-30T02:16:44.680Z,17.55
2022-08-30T02:21:47.053Z,17.53
2022-08-30T02:26:49.625Z,17.52
2022-08-30T02:31:52.032Z,17.52
2022-08-30T02:36:54.389Z,17.52
2022-08-30T02:41:56.748Z,17.52
2022-08-30T02:46:59.238Z,17.51
2022-08-30T02:52:02.617Z,17.52
2022-08-30T02:57:06.570Z,17.53
2022-08-30T03:02:09.338Z,17.53
2022-08-30T03:07:12.609Z,17.48
2022-08-30T03:12:14.990Z,17.43
2022-08-30T03:17:17.716Z,17.36
2022-08-30T03:22:20.040Z,17.31
2022-08-30T03:27:22.387Z,17.30
2022-08-30T03:32:24.757Z,17.29
2022-08-30T03:37:27.669Z,17.29
2022-08-30T03:42:29.966Z,17.27
2022-08-30T03:47:32.501Z,17.21
2022-08-30T03:52:34.852Z,17.16
2022-08-30T03:57:38.967Z,17.11
2022-08-30T04:02:45.939Z,17.07
2022-08-30T04:07:48.312Z,17.01
2022-08-30T04:12:50.789Z,16.99
2022-08-30T04:17:54.792Z,16.95
2022-08-30T04:22:57.432Z,16.89
2022-08-30T04:28:00.009Z,16.83
2022-08-30T04:33:02.302Z,16.83
2022-08-30T04:38:04.652Z,16.85
2022-08-30T04:43:06.970Z,16.87
2022-08-30T04:48:10.290Z,16.92
2022-08-30T04:53:13.215Z,17.00
2022-08-30T04:58:15.682Z,17.09
2022-08-30T05:03:18.310Z,17.18
2022-08-30T05:08:24.630Z,17.25
2022-08-30T05:13:35.518Z,17.31
2022-08-30T05:18:39.402Z,17.43
2022-08-30T05:23:42.200Z,17.53
2022-08-30T05:28:45.034Z,17.77
2022-08-30T05:33:49.120Z,17.95
2022-08-30T05:38:51.712Z,17.87
2022-08-30T05:43:55.092Z,17.77
2022-08-30T05:48:57.743Z,17.67
2022-08-30T05:54:00.354Z,17.58
2022-08-30T05:59:04.372Z,17.54
2022-08-30T06:04:07.615Z,17.59
2022-08-30T06:09:11.412Z,17.72
2022-08-30T06:14:14.331Z,17.71
2022-08-30T06:19:17.085Z,17.58
2022-08-30T06:24:20.803Z,17.50
2022-08-30T06:29:30.340Z,17.49
2022-08-30T06:34:32.673Z,17.72
2022-08-30T06:39:35.949Z,18.02
2022-08-30T06:44:39.081Z,18.07
2022-08-30T06:49:41.390Z,18.27
2022-08-30T06:54:43.809Z,18.32
2022-08-30T06:59:46.175Z,18.33
2022-08-30T07:04:48.578Z,18.35
2022-08-30T07:09:50.930Z,18.44
2022-08-30T07:14:53.275Z,18.53
2022-08-30T07:19:55.900Z,18.55
2022-08-30T07:24:58.251Z,18.62
2022-08-30T07:30:02.513Z,18.60
2022-08-30T07:35:05.216Z,18.55
2022-08-30T07:40:08.008Z,18.70
2022-08-30T07:45:10.972Z,19.25
2022-08-30T07:50:13.764Z,19.57
2022-08-30T07:55:16.582Z,19.89
2022-08-30T08:06:40.880Z,20.06
2022-08-30T08:11:43.429Z,20.05
2022-08-30T08:16:46.554Z,20.20
2022-08-30T08:21:59.363Z,20.45
2022-08-30T08:27:11.488Z,20.43
2022-08-30T08:32:14.157Z,20.04
2022-08-30T08:37:17.332Z,19.18
2022-08-30T08:42:23.239Z,18.68
2022-08-30T08:47:37.451Z,18.62
2022-08-30T08:53:01.675Z,18.57
2022-08-30T08:58:04.038Z,18.50
2022-08-30T09:03:08.132Z,18.70
2022-08-30T09:08:14.415Z,18.87
2022-08-30T09:13:18.950Z,18.84
2022-08-30T09:18:40.428Z,18.97
2022-08-30T09:23:48.728Z,18.83
2022-08-30T09:28:51.442Z,18.99
2022-08-30T09:34:05.003Z,19.43
2022-08-30T09:39:23.229Z,19.47
2022-08-30T09:44:36.871Z,19.16
2022-08-30T09:49:40.611Z,19.46
2022-08-30T09:54:59.232Z,19.67
2022-08-30T10:00:08.176Z,19.61
2022-08-30T10:05:26.573Z,19.51
2022-08-30T10:10:33.455Z,19.35
2022-08-30T10:15:40.582Z,19.41
2022-08-30T10:20:52.716Z,19.48
2022-08-30T10:25:57.419Z,19.56
2022-08-30T10:31:03.145Z,19.53
2022-08-30T10:36:15.330Z,19.23
2022-08-30T10:41:33.554Z,19.05
2022-08-30T10:46:48.567Z,19.06
2022-08-30T10:52:01.426Z,19.41
2022-08-30T10:57:04.610Z,19.89
2022-08-30T11:02:24.093Z,20.43
2022-08-30T11:07:42.784Z,20.98
2022-08-30T11:13:01.021Z,21.11
2022-08-30T11:18:13.887Z,20.62
2022-08-30T11:23:19.264Z,20.44
2022-08-30T11:28:37.659Z,20.50
2022-08-30T11:33:47.172Z,20.26
2022-08-30T11:38:49.648Z,20.01
2022-08-30T11:43:55.470Z,19.67
2022-08-30T11:49:01.101Z,19.40
2022-08-30T11:54:19.324Z,19.38
2022-08-30T11:59:37.579Z,19.38
2022-08-30T12:04:45.371Z,19.33
2022-08-30T12:09:47.654Z,19.14
2022-08-30T12:14:52.568Z,19.19
2022-08-30T12:19:57.161Z,19.38
2022-08-30T12:24:59.468Z,19.58
2022-08-30T12:30:05.801Z,19.67
2022-08-30T12:35:18.070Z,19.58
2022-08-30T12:40:22.726Z,19.55
2022-08-30T12:45:27.045Z,19.30
2022-08-30T12:50:31.877Z,18.99
2022-08-30T12:55:36.335Z,18.77
2022-08-30T13:00:42.693Z,18.63
2022-08-30T13:05:48.269Z,18.58
2022-08-30T13:10:57.086Z,18.73
2022-08-30T13:16:15.778Z,18.81
2022-08-30T13:21:22.652Z,18.72
2022-08-30T13:26:25.192Z,18.57
2022-08-30T13:31:30.143Z,18.53
2022-08-30T13:36:35.369Z,18.73
2022-08-30T13:41:38.278Z,19.00
2022-08-30T13:46:48.526Z,19.19
2022-08-30T13:52:19.040Z,19.40
2022-08-30T13:57:53.627Z,19.64
2022-08-30T14:02:46.334Z,19.68
2022-08-30T14:07:51.292Z,19.55
2022-08-30T14:12:54.519Z,19.35
2022-08-30T14:17:58.863Z,19.11
2022-08-30T14:23:01.438Z,19.05
2022-08-30T14:28:03.973Z,19.22
2022-08-30T14:33:06.667Z,19.65
2022-08-30T14:38:09.029Z,19.98
2022-08-30T14:43:13.624Z,20.06
2022-08-30T14:48:16.000Z,20.13
2022-08-30T14:53:18.384Z,20.79
2022-08-30T14:58:21.184Z,21.68
2022-08-30T15:03:24.004Z,22.11
2022-08-30T15:08:26.406Z,21.92
2022-08-30T15:13:28.849Z,21.33
2022-08-30T15:18:32.358Z,20.83
2022-08-30T15:23:34.731Z,20.40
2022-08-30T15:28:37.058Z,20.02
2022-08-30T15:33:39.492Z,19.81
2022-08-30T15:38:42.412Z,19.59
2022-08-30T15:43:45.021Z,19.42
2022-08-30T15:48:47.548Z,19.25
2022-08-30T15:53:51.053Z,19.13
2022-08-30T15:58:53.386Z,18.95
2022-08-30T16:03:56.116Z,18.79
2022-08-30T16:09:00.077Z,18.68
2022-08-30T16:14:02.792Z,18.60
2022-08-30T16:19:05.790Z,18.54
2022-08-30T16:24:10.758Z,18.51
2022-08-30T16:29:16.332Z,18.51
2022-08-30T16:34:20.157Z,18.50
2022-08-30T16:39:22.905Z,18.49
2022-08-30T16:44:30.054Z,18.50
2022-08-30T16:49:32.502Z,18.50
2022-08-30T16:54:35.210Z,18.48
2022-08-30T16:59:38.516Z,18.47
2022-08-30T17:04:42.497Z,18.44
2022-08-30T17:09:46.310Z,18.34
2022-08-30T17:14:49.619Z,18.25
2022-08-30T17:19:51.989Z,18.17
2022-08-30T17:24:54.294Z,18.05
2022-08-30T17:29:56.580Z,17.91
2022-08-30T17:34:59.063Z,17.75
2022-08-30T17:40:02.179Z,17.51
2022-08-30T17:45:08.264Z,17.30
2022-08-30T17:50:11.516Z,17.13
2022-08-30T17:55:14.131Z,16.98
2022-08-30T18:00:16.695Z,16.84
2022-08-30T18:05:24.624Z,16.71
2022-08-30T18:10:33.976Z,16.59
2022-08-30T18:15:37.651Z,16.51
2022-08-30T18:20:44.742Z,16.39
2022-08-30T18:25:53.295Z,16.28
2022-08-30T18:30:56.788Z,16.17
2022-08-30T18:35:59.185Z,16.09
2022-08-30T18:41:06.039Z,16.05
2022-08-30T18:46:10.111Z,16.04
2022-08-30T18:51:13.879Z,16.02
2022-08-30T18:56:16.827Z,16.03
2022-08-30T19:01:22.772Z,16.07
2022-08-30T19:06:25.432Z,16.12
2022-08-30T19:11:27.766Z,16.18
2022-08-30T19:16:30.816Z,16.24
2022-08-30T19:21:33.346Z,16.28
2022-08-30T19:26:37.238Z,16.31
2022-08-30T19:31:40.025Z,16.30
2022-08-30T19:36:43.548Z,16.32
2022-08-30T19:41:47.325Z,16.36
2022-08-30T19:46:51.015Z,16.42
2022-08-30T19:51:53.598Z,16.49
2022-08-30T19:56:56.339Z,16.55
2022-08-30T20:01:58.719Z,16.58
2022-08-30T20:07:01.038Z,16.61
2022-08-30T20:12:04.146Z,16.60
2022-08-30T20:17:11.561Z,16.60
2022-08-30T20:22:15.264Z,16.62
2022-08-30T20:27:17.787Z,16.63
2022-08-30T20:32:20.166Z,16.62
2022-08-30T20:37:23.544Z,16.63
2022-08-30T20:42:26.343Z,16.61
2022-08-30T20:47:28.653Z,16.54
2022-08-30T20:52:30.966Z,16.50
2022-08-30T20:57:33.824Z,16.49
2022-08-30T21:02:36.624Z,16.49
2022-08-30T21:07:40.293Z,16.43
2022-08-30T21:12:42.786Z,16.29
2022-08-30T21:17:48.194Z,16.14
2022-08-30T21:22:50.514Z,16.01
2022-08-30T21:27:53.773Z,15.90
2022-08-30T21:32:59.968Z,15.80
2022-08-30T21:38:06.370Z,15.71
2022-08-30T21:43:10.496Z,15.61
2022-08-30T21:48:13.734Z,15.49
2022-08-30T21:53:17.288Z,15.36
2022-08-30T21:58:19.812Z,15.24
2022-08-30T22:03:22.111Z,15.17
2022-08-30T22:08:24.493Z,15.10
2022-08-30T22:13:26.931Z,15.07
2022-08-30T22:18:30.577Z,15.03
2022-08-30T22:23:33.180Z,14.99
2022-08-30T22:28:35.796Z,14.94
2022-08-30T22:33:38.141Z,14.90
2022-08-30T22:38:40.824Z,14.87
2022-08-30T22:43:43.525Z,14.86
2022-08-30T22:48:46.549Z,14.87
2022-08-30T22:53:49.846Z,14.85
2022-08-30T22:58:53.763Z,14.82
2022-08-30T23:03:56.854Z,14.80
2022-08-30T23:08:59.184Z,14.79
2022-08-30T23:14:01.987Z,14.82
2022-08-30T23:19:04.303Z,14.84
2022-08-30T23:24:22.721Z,14.88
2022-08-30T23:29:40.138Z,14.83
2022-08-30T23:35:17.279Z,14.73
2022-08-30T23:40:35.807Z,14.60
2022-08-30T23:45:54.268Z,14.48
2022-08-30T23:51:12.825Z,14.37
2022-08-30T23:56:40.401Z,14.31
